sensor_id;sensor_type;location;lat;lon;timestamp;P1;durP1;ratioP1;P2;durP2;ratioP2
6852;SDS011;3465;42.144;24.722;2022-09-09T00:02:23;14.65;;;9.27;;
6852;SDS011;3465;42.144;24.722;2022-09-09T00:04:59;15.13;;;9.98;;
6852;SDS011;3465;42.144;24.722;2022-09-09T00:07:41;15.38;;;8.90;;
6852;SDS011;3465;42.144;24.722;2022-09-09T00:10:19;12.93;;;8.85;;
6852;SDS011;3465;42.144;24.722;2022-09-09T00:12:59;14.20;;;9.65;;
6852;SDS011;3465;42.144;24.722;2022-09-09T00:15:28;14.60;;;9.52;;
6852;SDS011;3465;42.144;24.722;2022-09-09T00:18:17;19.88;;;9.77;;
6852;SDS011;3465;42.144;24.722;2022-09-09T00:23:37;17.90;;;9.57;;
6852;SDS011;3465;42.144;24.722;2022-09-09T00:26:14;16.20;;;9.63;;
6852;SDS011;3465;42.144;24.722;2022-09-09T00:29:04;13.27;;;9.40;;
6852;SDS011;3465;42.144;24.722;2022-09-09T00:31:39;14.35;;;9.23;;
6852;SDS011;3465;42.144;24.722;2022-09-09T00:34:11;16.23;;;10.05;;
6852;SDS011;3465;42.144;24.722;2022-09-09T00:36:40;17.40;;;9.50;;
6852;SDS011;3465;42.144;24.722;2022-09-09T00:39:09;16.75;;;9.55;;
6852;SDS011;3465;42.144;24.722;2022-09-09T00:50:05;13.77;;;9.73;;
6852;SDS011;3465;42.144;24.722;2022-09-09T00:53:02;14.35;;;9.98;;
6852;SDS011;3465;42.144;24.722;2022-09-09T00:58:16;13.25;;;9.10;;
6852;SDS011;3465;42.144;24.722;2022-09-09T01:11:05;23.13;;;9.68;;
6852;SDS011;3465;42.144;24.722;2022-09-09T01:13:37;14.00;;;9.18;;
6852;SDS011;3465;42.144;24.722;2022-09-09T01:16:03;14.65;;;9.77;;
6852;SDS011;3465;42.144;24.722;2022-09-09T01:18:34;11.88;;;9.30;;
6852;SDS011;3465;42.144;24.722;2022-09-09T01:24:20;12.50;;;9.35;;
6852;SDS011;3465;42.144;24.722;2022-09-09T01:27:05;13.40;;;9.45;;
6852;SDS011;3465;42.144;24.722;2022-09-09T01:29:33;17.63;;;9.50;;
6852;SDS011;3465;42.144;24.722;2022-09-09T01:32:02;15.68;;;9.68;;
6852;SDS011;3465;42.144;24.722;2022-09-09T01:34:48;15.80;;;10.13;;
6852;SDS011;3465;42.144;24.722;2022-09-09T01:37:15;13.80;;;9.75;;
6852;SDS011;3465;42.144;24.722;2022-09-09T01:39:41;15.45;;;9.10;;
6852;SDS011;3465;42.144;24.722;2022-09-09T01:42:12;14.45;;;9.27;;
6852;SDS011;3465;42.144;24.722;2022-09-09T01:44:39;14.25;;;9.30;;
6852;SDS011;3465;42.144;24.722;2022-09-09T01:47:05;14.65;;;9.13;;
6852;SDS011;3465;42.144;24.722;2022-09-09T01:49:31;18.05;;;9.70;;
6852;SDS011;3465;42.144;24.722;2022-09-09T01:52:00;19.08;;;9.95;;
6852;SDS011;3465;42.144;24.722;2022-09-09T01:54:26;13.50;;;9.68;;
6852;SDS011;3465;42.144;24.722;2022-09-09T01:57:14;17.13;;;9.38;;
6852;SDS011;3465;42.144;24.722;2022-09-09T02:02:24;12.23;;;9.32;;
6852;SDS011;3465;42.144;24.722;2022-09-09T02:07:51;14.45;;;9.65;;
6852;SDS011;3465;42.144;24.722;2022-09-09T02:10:42;17.45;;;9.23;;
6852;SDS011;3465;42.144;24.722;2022-09-09T02:13:14;14.02;;;10.15;;
6852;SDS011;3465;42.144;24.722;2022-09-09T02:16:26;14.73;;;9.50;;
6852;SDS011;3465;42.144;24.722;2022-09-09T02:18:56;14.32;;;8.75;;
6852;SDS011;3465;42.144;24.722;2022-09-09T02:21:38;11.55;;;8.95;;
6852;SDS011;3465;42.144;24.722;2022-09-09T02:24:07;14.88;;;9.10;;
6852;SDS011;3465;42.144;24.722;2022-09-09T02:26:36;15.68;;;8.40;;
6852;SDS011;3465;42.144;24.722;2022-09-09T02:29:06;11.63;;;8.82;;
6852;SDS011;3465;42.144;24.722;2022-09-09T02:31:36;14.60;;;8.82;;
6852;SDS011;3465;42.144;24.722;2022-09-09T02:34:03;14.57;;;8.70;;
6852;SDS011;3465;42.144;24.722;2022-09-09T02:36:33;13.63;;;9.10;;
6852;SDS011;3465;42.144;24.722;2022-09-09T02:39:01;14.70;;;9.02;;
6852;SDS011;3465;42.144;24.722;2022-09-09T02:41:31;13.02;;;8.98;;
6852;SDS011;3465;42.144;24.722;2022-09-09T02:43:59;16.20;;;9.13;;
6852;SDS011;3465;42.144;24.722;2022-09-09T02:49:15;14.20;;;9.38;;
6852;SDS011;3465;42.144;24.722;2022-09-09T02:54:33;12.73;;;9.07;;
6852;SDS011;3465;42.144;24.722;2022-09-09T02:57:19;15.95;;;9.18;;
6852;SDS011;3465;42.144;24.722;2022-09-09T02:59:56;12.48;;;9.60;;
6852;SDS011;3465;42.144;24.722;2022-09-09T03:02:23;16.08;;;9.65;;
6852;SDS011;3465;42.144;24.722;2022-09-09T03:04:50;11.95;;;8.32;;
6852;SDS011;3465;42.144;24.722;2022-09-09T03:07:17;14.63;;;9.65;;
6852;SDS011;3465;42.144;24.722;2022-09-09T03:09:43;17.67;;;9.70;;
6852;SDS011;3465;42.144;24.722;2022-09-09T03:12:09;11.27;;;9.50;;
6852;SDS011;3465;42.144;24.722;2022-09-09T03:14:36;17.70;;;9.23;;
6852;SDS011;3465;42.144;24.722;2022-09-09T03:17:03;15.02;;;9.23;;
6852;SDS011;3465;42.144;24.722;2022-09-09T03:19:29;18.70;;;9.65;;
6852;SDS011;3465;42.144;24.722;2022-09-09T03:21:55;15.18;;;10.27;;
6852;SDS011;3465;42.144;24.722;2022-09-09T03:24:20;13.35;;;9.88;;
6852;SDS011;3465;42.144;24.722;2022-09-09T03:26:50;14.55;;;10.18;;
6852;SDS011;3465;42.144;24.722;2022-09-09T03:29:15;12.63;;;10.10;;
6852;SDS011;3465;42.144;24.722;2022-09-09T03:31:43;15.52;;;10.18;;
6852;SDS011;3465;42.144;24.722;2022-09-09T03:34:09;15.23;;;9.88;;
6852;SDS011;3465;42.144;24.722;2022-09-09T03:36:35;13.38;;;9.77;;
6852;SDS011;3465;42.144;24.722;2022-09-09T03:39:02;14.48;;;9.88;;
6852;SDS011;3465;42.144;24.722;2022-09-09T03:41:28;13.75;;;10.80;;
6852;SDS011;3465;42.144;24.722;2022-09-09T03:43:54;16.45;;;11.40;;
6852;SDS011;3465;42.144;24.722;2022-09-09T03:46:23;14.43;;;10.63;;
6852;SDS011;3465;42.144;24.722;2022-09-09T03:48:50;18.13;;;11.30;;
6852;SDS011;3465;42.144;24.722;2022-09-09T03:51:17;15.15;;;10.68;;
6852;SDS011;3465;42.144;24.722;2022-09-09T03:53:42;15.50;;;11.13;;
6852;SDS011;3465;42.144;24.722;2022-09-09T03:56:08;14.98;;;10.85;;
6852;SDS011;3465;42.144;24.722;2022-09-09T03:58:34;14.40;;;10.27;;
6852;SDS011;3465;42.144;24.722;2022-09-09T04:01:11;14.30;;;10.88;;
6852;SDS011;3465;42.144;24.722;2022-09-09T04:03:38;19.70;;;10.90;;
6852;SDS011;3465;42.144;24.722;2022-09-09T04:06:04;19.00;;;10.57;;
6852;SDS011;3465;42.144;24.722;2022-09-09T04:08:32;17.48;;;10.55;;
6852;SDS011;3465;42.144;24.722;2022-09-09T04:10:58;22.20;;;10.83;;
6852;SDS011;3465;42.144;24.722;2022-09-09T04:13:25;24.00;;;11.70;;
6852;SDS011;3465;42.144;24.722;2022-09-09T04:15:55;20.08;;;10.43;;
6852;SDS011;3465;42.144;24.722;2022-09-09T04:18:22;24.13;;;11.07;;
6852;SDS011;3465;42.144;24.722;2022-09-09T04:20:49;13.87;;;10.23;;
6852;SDS011;3465;42.144;24.722;2022-09-09T04:23:15;20.57;;;11.70;;
6852;SDS011;3465;42.144;24.722;2022-09-09T04:25:50;18.98;;;10.80;;
6852;SDS011;3465;42.144;24.722;2022-09-09T04:28:17;20.27;;;11.32;;
6852;SDS011;3465;42.144;24.722;2022-09-09T04:30:44;21.13;;;10.90;;
6852;SDS011;3465;42.144;24.722;2022-09-09T04:33:10;20.67;;;11.00;;
6852;SDS011;3465;42.144;24.722;2022-09-09T04:35:37;19.55;;;12.30;;
6852;SDS011;3465;42.144;24.722;2022-09-09T04:38:03;17.65;;;11.98;;
6852;SDS011;3465;42.144;24.722;2022-09-09T04:40:30;23.17;;;10.95;;
6852;SDS011;3465;42.144;24.722;2022-09-09T04:42:59;18.73;;;10.70;;
6852;SDS011;3465;42.144;24.722;2022-09-09T04:45:26;17.85;;;10.68;;
6852;SDS011;3465;42.144;24.722;2022-09-09T04:47:52;14.77;;;10.25;;
6852;SDS011;3465;42.144;24.722;2022-09-09T04:50:18;14.93;;;9.70;;
6852;SDS011;3465;42.144;24.722;2022-09-09T04:52:44;21.08;;;10.07;;
6852;SDS011;3465;42.144;24.722;2022-09-09T04:55:10;19.70;;;10.23;;
6852;SDS011;3465;42.144;24.722;2022-09-09T04:57:36;14.80;;;9.65;;
6852;SDS011;3465;42.144;24.722;2022-09-09T05:00:02;13.32;;;9.18;;
6852;SDS011;3465;42.144;24.722;2022-09-09T05:02:28;15.65;;;9.65;;
6852;SDS011;3465;42.144;24.722;2022-09-09T05:04:55;13.30;;;8.77;;
6852;SDS011;3465;42.144;24.722;2022-09-09T05:07:21;11.95;;;7.55;;
6852;SDS011;3465;42.144;24.722;2022-09-09T05:09:46;10.52;;;7.57;;
6852;SDS011;3465;42.144;24.722;2022-09-09T05:12:14;13.38;;;6.80;;
6852;SDS011;3465;42.144;24.722;2022-09-09T05:14:41;13.32;;;7.03;;
6852;SDS011;3465;42.144;24.722;2022-09-09T05:17:07;13.50;;;6.70;;
6852;SDS011;3465;42.144;24.722;2022-09-09T05:19:33;13.63;;;5.60;;
6852;SDS011;3465;42.144;24.722;2022-09-09T05:21:58;17.60;;;6.32;;
6852;SDS011;3465;42.144;24.722;2022-09-09T05:24:23;14.60;;;6.07;;
6852;SDS011;3465;42.144;24.722;2022-09-09T05:26:49;13.48;;;5.95;;
6852;SDS011;3465;42.144;24.722;2022-09-09T05:29:14;20.73;;;6.40;;
6852;SDS011;3465;42.144;24.722;2022-09-09T05:31:39;15.95;;;6.00;;
6852;SDS011;3465;42.144;24.722;2022-09-09T05:34:06;20.92;;;6.07;;
6852;SDS011;3465;42.144;24.722;2022-09-09T05:36:31;12.10;;;5.50;;
6852;SDS011;3465;42.144;24.722;2022-09-09T05:38:57;16.50;;;5.80;;
6852;SDS011;3465;42.144;24.722;2022-09-09T05:41:22;15.98;;;5.68;;
6852;SDS011;3465;42.144;24.722;2022-09-09T05:43:48;17.25;;;5.20;;
6852;SDS011;3465;42.144;24.722;2022-09-09T05:46:20;14.60;;;5.50;;
6852;SDS011;3465;42.144;24.722;2022-09-09T05:48:48;10.73;;;5.60;;
6852;SDS011;3465;42.144;24.722;2022-09-09T05:51:19;12.65;;;5.35;;
6852;SDS011;3465;42.144;24.722;2022-09-09T05:53:49;14.80;;;5.28;;
6852;SDS011;3465;42.144;24.722;2022-09-09T05:58:43;12.55;;;5.18;;
6852;SDS011;3465;42.144;24.722;2022-09-09T06:01:18;11.32;;;4.85;;
6852;SDS011;3465;42.144;24.722;2022-09-09T06:03:46;25.65;;;6.47;;
6852;SDS011;3465;42.144;24.722;2022-09-09T06:06:13;7.95;;;4.28;;
6852;SDS011;3465;42.144;24.722;2022-09-09T06:08:42;11.00;;;4.35;;
6852;SDS011;3465;42.144;24.722;2022-09-09T06:13:34;7.45;;;4.20;;
6852;SDS011;3465;42.144;24.722;2022-09-09T06:16:02;8.15;;;4.75;;
6852;SDS011;3465;42.144;24.722;2022-09-09T06:18:28;13.10;;;5.00;;
6852;SDS011;3465;42.144;24.722;2022-09-09T06:23:24;15.02;;;4.72;;
6852;SDS011;3465;42.144;24.722;2022-09-09T06:25:50;9.93;;;4.80;;
6852;SDS011;3465;42.144;24.722;2022-09-09T06:28:17;10.88;;;4.53;;
6852;SDS011;3465;42.144;24.722;2022-09-09T06:30:43;11.25;;;4.90;;
6852;SDS011;3465;42.144;24.722;2022-09-09T06:33:09;16.70;;;4.85;;
6852;SDS011;3465;42.144;24.722;2022-09-09T06:35:35;9.88;;;3.92;;
6852;SDS011;3465;42.144;24.722;2022-09-09T06:38:01;16.30;;;4.40;;
6852;SDS011;3465;42.144;24.722;2022-09-09T06:40:26;12.73;;;4.47;;
6852;SDS011;3465;42.144;24.722;2022-09-09T06:42:51;11.13;;;4.32;;
6852;SDS011;3465;42.144;24.722;2022-09-09T06:45:17;12.05;;;4.85;;
6852;SDS011;3465;42.144;24.722;2022-09-09T06:47:42;12.43;;;5.50;;
6852;SDS011;3465;42.144;24.722;2022-09-09T06:50:08;15.60;;;5.03;;
6852;SDS011;3465;42.144;24.722;2022-09-09T06:52:35;9.13;;;4.78;;
6852;SDS011;3465;42.144;24.722;2022-09-09T06:55:00;11.27;;;4.47;;
6852;SDS011;3465;42.144;24.722;2022-09-09T06:57:26;23.83;;;5.80;;
6852;SDS011;3465;42.144;24.722;2022-09-09T06:59:51;10.65;;;4.85;;
6852;SDS011;3465;42.144;24.722;2022-09-09T07:02:17;26.48;;;5.90;;
6852;SDS011;3465;42.144;24.722;2022-09-09T07:04:42;18.58;;;5.47;;
6852;SDS011;3465;42.144;24.722;2022-09-09T07:07:08;15.32;;;5.35;;
6852;SDS011;3465;42.144;24.722;2022-09-09T07:09:34;9.02;;;4.90;;
6852;SDS011;3465;42.144;24.722;2022-09-09T07:12:00;10.48;;;4.45;;
6852;SDS011;3465;42.144;24.722;2022-09-09T07:14:26;14.15;;;4.70;;
6852;SDS011;3465;42.144;24.722;2022-09-09T07:16:52;9.60;;;4.43;;
6852;SDS011;3465;42.144;24.722;2022-09-09T07:19:17;9.95;;;4.32;;
6852;SDS011;3465;42.144;24.722;2022-09-09T07:21:43;13.60;;;4.80;;
6852;SDS011;3465;42.144;24.722;2022-09-09T07:24:09;11.30;;;4.55;;
6852;SDS011;3465;42.144;24.722;2022-09-09T07:26:36;6.55;;;4.22;;
6852;SDS011;3465;42.144;24.722;2022-09-09T07:29:03;13.70;;;7.60;;
6852;SDS011;3465;42.144;24.722;2022-09-09T07:31:32;8.50;;;4.18;;
6852;SDS011;3465;42.144;24.722;2022-09-09T07:34:00;7.47;;;4.00;;
6852;SDS011;3465;42.144;24.722;2022-09-09T07:36:27;6.55;;;4.25;;
6852;SDS011;3465;42.144;24.722;2022-09-09T07:38:55;10.07;;;4.22;;
6852;SDS011;3465;42.144;24.722;2022-09-09T07:41:26;9.05;;;3.97;;
6852;SDS011;3465;42.144;24.722;2022-09-09T07:43:55;9.73;;;3.80;;
6852;SDS011;3465;42.144;24.722;2022-09-09T07:46:22;10.73;;;4.25;;
6852;SDS011;3465;42.144;24.722;2022-09-09T07:48:50;8.90;;;4.07;;
6852;SDS011;3465;42.144;24.722;2022-09-09T07:51:18;7.32;;;3.58;;
6852;SDS011;3465;42.144;24.722;2022-09-09T07:53:47;7.03;;;3.60;;
6852;SDS011;3465;42.144;24.722;2022-09-09T07:56:16;5.68;;;3.42;;
6852;SDS011;3465;42.144;24.722;2022-09-09T07:58:44;12.60;;;3.60;;
6852;SDS011;3465;42.144;24.722;2022-09-09T08:01:13;7.85;;;3.58;;
6852;SDS011;3465;42.144;24.722;2022-09-09T08:03:41;8.38;;;3.58;;
6852;SDS011;3465;42.144;24.722;2022-09-09T08:06:08;14.48;;;11.30;;
6852;SDS011;3465;42.144;24.722;2022-09-09T08:08:34;7.65;;;3.40;;
6852;SDS011;3465;42.144;24.722;2022-09-09T08:11:05;8.93;;;3.65;;
6852;SDS011;3465;42.144;24.722;2022-09-09T08:13:39;6.78;;;3.40;;
6852;SDS011;3465;42.144;24.722;2022-09-09T08:18:32;8.52;;;3.70;;
6852;SDS011;3465;42.144;24.722;2022-09-09T08:21:31;6.25;;;3.40;;
6852;SDS011;3465;42.144;24.722;2022-09-09T08:23:53;4.20;;;3.30;;
6852;SDS011;3465;42.144;24.722;2022-09-09T08:26:20;11.45;;;4.15;;
6852;SDS011;3465;42.144;24.722;2022-09-09T08:28:51;11.25;;;5.07;;
6852;SDS011;3465;42.144;24.722;2022-09-09T08:31:22;8.20;;;4.05;;
6852;SDS011;3465;42.144;24.722;2022-09-09T08:33:50;10.10;;;3.70;;
6852;SDS011;3465;42.144;24.722;2022-09-09T08:36:19;9.70;;;3.45;;
6852;SDS011;3465;42.144;24.722;2022-09-09T08:38:53;6.07;;;3.35;;
6852;SDS011;3465;42.144;24.722;2022-09-09T08:49:44;13.38;;;4.45;;
6852;SDS011;3465;42.144;24.722;2022-09-09T08:54:47;6.72;;;3.47;;
6852;SDS011;3465;42.144;24.722;2022-09-09T08:57:20;8.18;;;3.83;;
6852;SDS011;3465;42.144;24.722;2022-09-09T08:59:51;26.65;;;7.90;;
6852;SDS011;3465;42.144;24.722;2022-09-09T09:13:20;6.35;;;3.65;;
6852;SDS011;3465;42.144;24.722;2022-09-09T09:15:58;10.63;;;4.97;;
6852;SDS011;3465;42.144;24.722;2022-09-09T09:18:31;8.05;;;3.40;;
6852;SDS011;3465;42.144;24.722;2022-09-09T09:21:05;11.10;;;6.03;;
6852;SDS011;3465;42.144;24.722;2022-09-09T09:23:52;5.57;;;3.70;;
6852;SDS011;3465;42.144;24.722;2022-09-09T09:26:28;5.70;;;3.70;;
6852;SDS011;3465;42.144;24.722;2022-09-09T09:28:57;6.07;;;4.00;;
6852;SDS011;3465;42.144;24.722;2022-09-09T09:31:24;7.63;;;3.90;;
6852;SDS011;3465;42.144;24.722;2022-09-09T09:33:55;13.23;;;4.22;;
6852;SDS011;3465;42.144;24.722;2022-09-09T09:36:34;12.65;;;6.00;;
6852;SDS011;3465;42.144;24.722;2022-09-09T09:39:09;8.02;;;4.55;;
6852;SDS011;3465;42.144;24.722;2022-09-09T09:41:35;6.93;;;4.07;;
6852;SDS011;3465;42.144;24.722;2022-09-09T09:44:04;8.50;;;4.45;;
6852;SDS011;3465;42.144;24.722;2022-09-09T09:46:32;9.75;;;4.88;;
6852;SDS011;3465;42.144;24.722;2022-09-09T09:48:58;9.13;;;4.88;;
6852;SDS011;3465;42.144;24.722;2022-09-09T09:51:30;11.43;;;7.88;;
6852;SDS011;3465;42.144;24.722;2022-09-09T09:54:03;9.88;;;5.15;;
6852;SDS011;3465;42.144;24.722;2022-09-09T09:56:34;7.95;;;4.80;;
6852;SDS011;3465;42.144;24.722;2022-09-09T09:59:00;6.40;;;4.45;;
6852;SDS011;3465;42.144;24.722;2022-09-09T10:01:27;11.25;;;4.65;;
6852;SDS011;3465;42.144;24.722;2022-09-09T10:03:57;9.20;;;5.55;;
6852;SDS011;3465;42.144;24.722;2022-09-09T10:06:34;9.45;;;4.68;;
6852;SDS011;3465;42.144;24.722;2022-09-09T10:09:02;9.70;;;5.30;;
6852;SDS011;3465;42.144;24.722;2022-09-09T10:11:44;9.68;;;5.97;;
6852;SDS011;3465;42.144;24.722;2022-09-09T10:14:39;7.13;;;4.40;;
6852;SDS011;3465;42.144;24.722;2022-09-09T10:22:35;12.10;;;4.82;;
6852;SDS011;3465;42.144;24.722;2022-09-09T10:25:07;10.63;;;4.55;;
6852;SDS011;3465;42.144;24.722;2022-09-09T10:33:05;11.07;;;5.50;;
6852;SDS011;3465;42.144;24.722;2022-09-09T10:38:27;8.85;;;5.00;;
6852;SDS011;3465;42.144;24.722;2022-09-09T10:57:27;17.80;;;7.30;;
6852;SDS011;3465;42.144;24.722;2022-09-09T11:00:03;10.35;;;5.30;;
6852;SDS011;3465;42.144;24.722;2022-09-09T11:02:42;11.43;;;5.15;;
6852;SDS011;3465;42.144;24.722;2022-09-09T11:05:21;13.40;;;5.22;;
6852;SDS011;3465;42.144;24.722;2022-09-09T11:12:53;10.05;;;5.53;;
6852;SDS011;3465;42.144;24.722;2022-09-09T11:15:28;11.30;;;5.50;;
6852;SDS011;3465;42.144;24.722;2022-09-09T11:17:58;9.82;;;5.60;;
6852;SDS011;3465;42.144;24.722;2022-09-09T11:20:26;11.90;;;4.70;;
6852;SDS011;3465;42.144;24.722;2022-09-09T11:22:54;12.82;;;6.80;;
6852;SDS011;3465;42.144;24.722;2022-09-09T11:25:36;11.95;;;5.10;;
6852;SDS011;3465;42.144;24.722;2022-09-09T11:34:16;11.20;;;8.30;;
6852;SDS011;3465;42.144;24.722;2022-09-09T11:44:39;9.60;;;4.28;;
6852;SDS011;3465;42.144;24.722;2022-09-09T11:47:23;10.55;;;4.28;;
6852;SDS011;3465;42.144;24.722;2022-09-09T11:50:26;11.40;;;9.02;;
6852;SDS011;3465;42.144;24.722;2022-09-09T11:56:50;9.80;;;4.85;;
6852;SDS011;3465;42.144;24.722;2022-09-09T11:59:27;7.65;;;4.75;;
6852;SDS011;3465;42.144;24.722;2022-09-09T12:01:59;6.95;;;4.40;;
6852;SDS011;3465;42.144;24.722;2022-09-09T12:06:59;7.13;;;4.50;;
6852;SDS011;3465;42.144;24.722;2022-09-09T12:09:46;7.85;;;5.32;;
6852;SDS011;3465;42.144;24.722;2022-09-09T12:14:58;12.35;;;4.65;;
6852;SDS011;3465;42.144;24.722;2022-09-09T12:17:42;5.05;;;4.00;;
6852;SDS011;3465;42.144;24.722;2022-09-09T12:34:18;9.63;;;4.18;;
6852;SDS011;3465;42.144;24.722;2022-09-09T12:37:13;15.10;;;6.03;;
6852;SDS011;3465;42.144;24.722;2022-09-09T12:39:51;9.82;;;4.82;;
6852;SDS011;3465;42.144;24.722;2022-09-09T12:42:21;5.25;;;4.28;;
6852;SDS011;3465;42.144;24.722;2022-09-09T12:44:51;8.20;;;4.60;;
6852;SDS011;3465;42.144;24.722;2022-09-09T12:47:18;10.57;;;4.60;;
6852;SDS011;3465;42.144;24.722;2022-09-09T12:49:46;8.98;;;5.50;;
6852;SDS011;3465;42.144;24.722;2022-09-09T12:54:49;8.77;;;4.50;;
6852;SDS011;3465;42.144;24.722;2022-09-09T12:57:18;7.28;;;4.70;;
6852;SDS011;3465;42.144;24.722;2022-09-09T12:59:47;10.60;;;4.60;;
6852;SDS011;3465;42.144;24.722;2022-09-09T13:04:51;9.15;;;5.13;;
6852;SDS011;3465;42.144;24.722;2022-09-09T13:07:19;8.60;;;5.13;;
6852;SDS011;3465;42.144;24.722;2022-09-09T13:09:47;7.13;;;4.82;;
6852;SDS011;3465;42.144;24.722;2022-09-09T13:12:21;9.98;;;5.53;;
6852;SDS011;3465;42.144;24.722;2022-09-09T13:14:53;16.13;;;4.82;;
6852;SDS011;3465;42.144;24.722;2022-09-09T13:17:22;10.90;;;4.72;;
6852;SDS011;3465;42.144;24.722;2022-09-09T13:19:50;9.07;;;4.63;;
6852;SDS011;3465;42.144;24.722;2022-09-09T13:25:17;7.57;;;4.80;;
6852;SDS011;3465;42.144;24.722;2022-09-09T13:33:02;10.07;;;5.47;;
6852;SDS011;3465;42.144;24.722;2022-09-09T13:35:30;6.05;;;4.82;;
6852;SDS011;3465;42.144;24.722;2022-09-09T13:37:57;8.18;;;5.30;;
6852;SDS011;3465;42.144;24.722;2022-09-09T13:40:24;6.60;;;4.70;;
6852;SDS011;3465;42.144;24.722;2022-09-09T13:42:55;7.72;;;4.68;;
6852;SDS011;3465;42.144;24.722;2022-09-09T13:45:22;6.97;;;4.90;;
6852;SDS011;3465;42.144;24.722;2022-09-09T13:47:51;5.60;;;4.70;;
6852;SDS011;3465;42.144;24.722;2022-09-09T13:50:24;9.68;;;5.30;;
6852;SDS011;3465;42.144;24.722;2022-09-09T13:52:53;9.50;;;5.15;;
6852;SDS011;3465;42.144;24.722;2022-09-09T13:55:24;8.80;;;5.50;;
6852;SDS011;3465;42.144;24.722;2022-09-09T14:00:30;13.20;;;4.65;;
6852;SDS011;3465;42.144;24.722;2022-09-09T14:02:58;15.13;;;5.32;;
6852;SDS011;3465;42.144;24.722;2022-09-09T14:05:26;13.75;;;6.45;;
6852;SDS011;3465;42.144;24.722;2022-09-09T14:07:52;9.95;;;5.95;;
6852;SDS011;3465;42.144;24.722;2022-09-09T14:10:17;10.75;;;6.25;;
6852;SDS011;3465;42.144;24.722;2022-09-09T14:12:43;14.57;;;6.40;;
6852;SDS011;3465;42.144;24.722;2022-09-09T14:15:09;11.90;;;6.28;;
6852;SDS011;3465;42.144;24.722;2022-09-09T14:17:36;16.10;;;6.57;;
6852;SDS011;3465;42.144;24.722;2022-09-09T14:20:05;27.27;;;8.82;;
6852;SDS011;3465;42.144;24.722;2022-09-09T14:22:35;10.30;;;6.43;;
6852;SDS011;3465;42.144;24.722;2022-09-09T14:25:01;11.02;;;7.15;;
6852;SDS011;3465;42.144;24.722;2022-09-09T14:27:28;14.10;;;6.20;;
6852;SDS011;3465;42.144;24.722;2022-09-09T14:29:56;16.05;;;6.65;;
6852;SDS011;3465;42.144;24.722;2022-09-09T14:32:22;16.67;;;6.13;;
6852;SDS011;3465;42.144;24.722;2022-09-09T14:34:48;18.60;;;6.50;;
6852;SDS011;3465;42.144;24.722;2022-09-09T14:37:16;11.18;;;6.28;;
6852;SDS011;3465;42.144;24.722;2022-09-09T14:39:42;13.32;;;6.32;;
6852;SDS011;3465;42.144;24.722;2022-09-09T14:42:09;18.67;;;6.60;;
6852;SDS011;3465;42.144;24.722;2022-09-09T14:44:36;14.38;;;6.32;;
6852;SDS011;3465;42.144;24.722;2022-09-09T14:47:03;15.70;;;6.63;;
6852;SDS011;3465;42.144;24.722;2022-09-09T14:49:35;13.23;;;6.20;;
6852;SDS011;3465;42.144;24.722;2022-09-09T14:52:01;12.73;;;5.97;;
6852;SDS011;3465;42.144;24.722;2022-09-09T14:54:27;11.23;;;6.47;;
6852;SDS011;3465;42.144;24.722;2022-09-09T14:56:54;13.02;;;6.70;;
6852;SDS011;3465;42.144;24.722;2022-09-09T14:59:19;11.70;;;5.60;;
6852;SDS011;3465;42.144;24.722;2022-09-09T15:01:45;13.18;;;6.82;;
6852;SDS011;3465;42.144;24.722;2022-09-09T15:04:10;10.45;;;6.20;;
6852;SDS011;3465;42.144;24.722;2022-09-09T15:06:37;16.40;;;6.93;;
6852;SDS011;3465;42.144;24.722;2022-09-09T15:09:04;13.40;;;6.65;;
6852;SDS011;3465;42.144;24.722;2022-09-09T15:11:31;15.35;;;6.75;;
6852;SDS011;3465;42.144;24.722;2022-09-09T15:14:02;14.55;;;6.57;;
6852;SDS011;3465;42.144;24.722;2022-09-09T15:16:28;8.38;;;6.20;;
6852;SDS011;3465;42.144;24.722;2022-09-09T15:18:55;15.73;;;6.20;;
6852;SDS011;3465;42.144;24.722;2022-09-09T15:21:23;10.75;;;7.07;;
6852;SDS011;3465;42.144;24.722;2022-09-09T15:23:51;17.60;;;6.38;;
6852;SDS011;3465;42.144;24.722;2022-09-09T15:26:17;11.68;;;6.68;;
6852;SDS011;3465;42.144;24.722;2022-09-09T15:28:44;16.10;;;6.60;;
6852;SDS011;3465;42.144;24.722;2022-09-09T15:31:15;12.48;;;6.60;;
6852;SDS011;3465;42.144;24.722;2022-09-09T15:33:51;11.88;;;6.82;;
6852;SDS011;3465;42.144;24.722;2022-09-09T15:36:26;10.55;;;6.47;;
6852;SDS011;3465;42.144;24.722;2022-09-09T15:39:02;16.60;;;6.25;;
6852;SDS011;3465;42.144;24.722;2022-09-09T15:41:29;15.68;;;6.03;;
6852;SDS011;3465;42.144;24.722;2022-09-09T15:43:56;11.38;;;5.32;;
6852;SDS011;3465;42.144;24.722;2022-09-09T15:51:53;15.82;;;5.47;;
6852;SDS011;3465;42.144;24.722;2022-09-09T15:54:23;9.85;;;6.00;;
6852;SDS011;3465;42.144;24.722;2022-09-09T15:56:54;17.45;;;7.28;;
6852;SDS011;3465;42.144;24.722;2022-09-09T15:59:22;18.17;;;6.75;;
6852;SDS011;3465;42.144;24.722;2022-09-09T16:01:51;48.42;;;12.43;;
6852;SDS011;3465;42.144;24.722;2022-09-09T16:04:17;76.78;;;14.70;;
6852;SDS011;3465;42.144;24.722;2022-09-09T16:06:55;18.30;;;7.50;;
6852;SDS011;3465;42.144;24.722;2022-09-09T16:09:23;10.85;;;5.78;;
6852;SDS011;3465;42.144;24.722;2022-09-09T16:11:49;11.20;;;5.05;;
6852;SDS011;3465;42.144;24.722;2022-09-09T16:14:14;11.10;;;5.20;;
6852;SDS011;3465;42.144;24.722;2022-09-09T16:16:41;10.18;;;5.50;;
6852;SDS011;3465;42.144;24.722;2022-09-09T16:19:07;10.45;;;5.13;;
6852;SDS011;3465;42.144;24.722;2022-09-09T16:21:37;6.78;;;5.28;;
6852;SDS011;3465;42.144;24.722;2022-09-09T16:24:08;8.88;;;5.80;;
6852;SDS011;3465;42.144;24.722;2022-09-09T16:26:35;9.80;;;5.63;;
6852;SDS011;3465;42.144;24.722;2022-09-09T16:29:02;14.25;;;5.97;;
6852;SDS011;3465;42.144;24.722;2022-09-09T16:31:28;12.95;;;5.97;;
6852;SDS011;3465;42.144;24.722;2022-09-09T16:33:55;14.57;;;5.63;;
6852;SDS011;3465;42.144;24.722;2022-09-09T16:36:22;10.77;;;5.47;;
6852;SDS011;3465;42.144;24.722;2022-09-09T16:38:56;9.35;;;5.03;;
6852;SDS011;3465;42.144;24.722;2022-09-09T16:41:24;10.85;;;5.13;;
6852;SDS011;3465;42.144;24.722;2022-09-09T16:43:54;11.38;;;6.07;;
6852;SDS011;3465;42.144;24.722;2022-09-09T16:46:21;15.13;;;6.20;;
6852;SDS011;3465;42.144;24.722;2022-09-09T16:48:47;20.02;;;5.70;;
6852;SDS011;3465;42.144;24.722;2022-09-09T16:53:39;12.32;;;5.15;;
6852;SDS011;3465;42.144;24.722;2022-09-09T16:56:08;13.52;;;5.28;;
6852;SDS011;3465;42.144;24.722;2022-09-09T16:58:42;16.67;;;5.50;;
6852;SDS011;3465;42.144;24.722;2022-09-09T17:01:08;17.88;;;6.28;;
6852;SDS011;3465;42.144;24.722;2022-09-09T17:03:36;20.65;;;8.50;;
6852;SDS011;3465;42.144;24.722;2022-09-09T17:06:02;10.98;;;5.90;;
6852;SDS011;3465;42.144;24.722;2022-09-09T17:08:33;12.10;;;6.28;;
6852;SDS011;3465;42.144;24.722;2022-09-09T17:10:58;14.23;;;6.03;;
6852;SDS011;3465;42.144;24.722;2022-09-09T17:13:24;12.18;;;5.45;;
6852;SDS011;3465;42.144;24.722;2022-09-09T17:15:50;17.83;;;6.00;;
6852;SDS011;3465;42.144;24.722;2022-09-09T17:18:15;8.40;;;5.88;;
6852;SDS011;3465;42.144;24.722;2022-09-09T17:20:42;15.55;;;6.32;;
6852;SDS011;3465;42.144;24.722;2022-09-09T17:23:09;13.05;;;6.15;;
6852;SDS011;3465;42.144;24.722;2022-09-09T17:25:36;8.70;;;6.00;;
6852;SDS011;3465;42.144;24.722;2022-09-09T17:28:01;13.70;;;6.00;;
6852;SDS011;3465;42.144;24.722;2022-09-09T17:30:29;13.27;;;6.18;;
6852;SDS011;3465;42.144;24.722;2022-09-09T17:32:59;14.90;;;6.53;;
6852;SDS011;3465;42.144;24.722;2022-09-09T17:35:25;10.82;;;6.03;;
6852;SDS011;3465;42.144;24.722;2022-09-09T17:37:52;17.02;;;6.55;;
6852;SDS011;3465;42.144;24.722;2022-09-09T17:40:18;15.60;;;6.00;;
6852;SDS011;3465;42.144;24.722;2022-09-09T17:42:43;16.40;;;6.60;;
6852;SDS011;3465;42.144;24.722;2022-09-09T17:45:09;13.10;;;6.43;;
6852;SDS011;3465;42.144;24.722;2022-09-09T17:47:34;12.20;;;6.28;;
6852;SDS011;3465;42.144;24.722;2022-09-09T17:50:00;17.58;;;7.60;;
6852;SDS011;3465;42.144;24.722;2022-09-09T17:52:25;17.08;;;6.97;;